createdAt,value
2018-01-06T00:00:03.244Z,9.12
2018-01-06T00:00:07.468Z,9.2
2018-01-06T00:00:11.503Z,9.19
2018-01-06T00:00:15.852Z,9.2
2018-01-06T00:00:20.206Z,9.15
2018-01-06T00:00:24.541Z,9.15
2018-01-06T00:00:28.676Z,9.13
2018-01-06T00:00:32.814Z,9.1
2018-01-06T00:00:36.738Z,9.17
2018-01-06T00:00:40.990Z,9.16
2018-01-06T00:00:45.106Z,9.19
2018-01-06T00:00:49.220Z,9.13
2018-01-06T00:00:53.336Z,9.17
2018-01-06T00:00:57.688Z,9.15
2018-01-06T00:01:02.085Z,9.13
2018-01-06T00:01:05.897Z,9.15
2018-01-06T00:01:10.142Z,9.13
2018-01-06T00:01:14.368Z,9.15
2018-01-06T00:01:18.515Z,9.16
2018-01-06T00:01:22.912Z,9.17
2018-01-06T00:01:26.737Z,9.15
2018-01-06T00:01:30.883Z,9.19
2018-01-06T00:01:34.904Z,9.15
2018-01-06T00:01:38.816Z,9.16
2018-01-06T00:01:42.732Z,9.1
2018-01-06T00:01:46.950Z,9.15
2018-01-06T00:01:51.225Z,9.13
2018-01-06T00:01:55.358Z,9.2
2018-01-06T00:01:59.476Z,9.15
2018-01-06T00:02:03.858Z,9.13
2018-01-06T00:02:07.979Z,9.15
2018-01-06T00:02:12.113Z,9.16
2018-01-06T00:02:16.460Z,9.08
2018-01-06T00:02:20.685Z,9.12
2018-01-06T00:02:24.837Z,9.13
2018-01-06T00:02:29.082Z,9.13
2018-01-06T00:02:33.231Z,9.19
2018-01-06T00:02:37.152Z,9.08
2018-01-06T00:02:41.385Z,9.12
2018-01-06T00:02:45.715Z,9.06
2018-01-06T00:02:49.956Z,9.1
2018-01-06T00:02:54.102Z,9.12
2018-01-06T00:02:58.247Z,9.16
2018-01-06T00:03:02.475Z,9.15
2018-01-06T00:03:06.689Z,9.13
2018-01-06T00:03:10.708Z,9.08
2018-01-06T00:03:15.050Z,9.13
2018-01-06T00:03:19.564Z,9.12
2018-01-06T00:03:23.587Z,9.15
2018-01-06T00:03:27.605Z,9.16
2018-01-06T00:03:31.724Z,9.15
2018-01-06T00:03:35.645Z,9.17
2018-01-06T00:03:39.774Z,9.15
2018-01-06T00:03:44.117Z,9.19
2018-01-06T00:03:48.143Z,9.15
2018-01-06T00:03:52.488Z,9.13
2018-01-06T00:03:56.614Z,9.17
2018-01-06T00:04:00.845Z,9.15
2018-01-06T00:04:05.089Z,9.08
2018-01-06T00:04:09.213Z,9.16
2018-01-06T00:04:13.449Z,9.12
2018-01-06T00:04:17.788Z,9.13
2018-01-06T00:04:22.030Z,9.16
2018-01-06T00:04:26.047Z,9.19
2018-01-06T00:04:30.278Z,9.13
2018-01-06T00:04:34.080Z,9.12
2018-01-06T00:04:38.109Z,9.1
2018-01-06T00:04:42.136Z,9.06
2018-01-06T00:04:46.165Z,9.13
2018-01-06T00:04:50.294Z,9.15
2018-01-06T00:04:54.418Z,9.2
2018-01-06T00:04:58.544Z,9.16
2018-01-06T00:05:02.558Z,9.13
2018-01-06T00:05:06.812Z,9.22
2018-01-06T00:05:11.049Z,9.15
2018-01-06T00:05:15.274Z,9.13
2018-01-06T00:05:19.615Z,9.13
2018-01-06T00:05:23.808Z,9.15
2018-01-06T00:05:27.958Z,9.16
2018-01-06T00:05:32.194Z,9.08
2018-01-06T00:05:36.324Z,9.12
2018-01-06T00:05:40.520Z,9.13
2018-01-06T00:05:44.665Z,9.13
2018-01-06T00:05:48.784Z,9.12
2018-01-06T00:05:53.119Z,9.13
2018-01-06T00:05:56.923Z,9.17
2018-01-06T00:06:01.179Z,9.15
2018-01-06T00:06:05.304Z,9.13
2018-01-06T00:06:09.666Z,9.08
2018-01-06T00:06:13.797Z,9.12
2018-01-06T00:06:18.041Z,9.15
2018-01-06T00:06:22.382Z,9.1
2018-01-06T00:06:26.508Z,9.12
2018-01-06T00:06:30.732Z,9.15
2018-01-06T00:06:34.863Z,9.12
2018-01-06T00:06:39.106Z,9.1
2018-01-06T00:06:43.241Z,9.13
2018-01-06T00:06:47.372Z,9.13
2018-01-06T00:06:51.711Z,9.12
2018-01-06T00:06:55.940Z,9.12
2018-01-06T00:07:00.059Z,9.15
2018-01-06T00:07:04.282Z,9.16
2018-01-06T00:07:08.518Z,9.13
2018-01-06T00:07:12.854Z,9.15
2018-01-06T00:07:17.097Z,9.15
2018-01-06T00:07:21.234Z,9.08
2018-01-06T00:07:25.140Z,9.13
2018-01-06T00:07:29.166Z,9.12
2018-01-06T00:07:33.206Z,9.13
2018-01-06T00:07:37.454Z,9.15
2018-01-06T00:07:41.464Z,9.08
2018-01-06T00:07:45.803Z,9.15
2018-01-06T00:07:50.154Z,9.04
2018-01-06T00:07:54.373Z,9.13
2018-01-06T00:07:58.725Z,9.12
2018-01-06T00:08:02.847Z,9.15
2018-01-06T00:08:07.196Z,9.15
2018-01-06T00:08:11.343Z,9.08
2018-01-06T00:08:15.583Z,9.03
2018-01-06T00:08:19.637Z,9.1
2018-01-06T00:08:23.990Z,9.1
2018-01-06T00:08:28.142Z,9.13
2018-01-06T00:08:32.053Z,9.15
2018-01-06T00:08:36.044Z,9.12
2018-01-06T00:08:40.167Z,9.08
2018-01-06T00:08:44.277Z,9.15
2018-01-06T00:08:48.512Z,9.15
2018-01-06T00:08:52.735Z,9.08
2018-01-06T00:08:56.643Z,9.12
2018-01-06T00:09:00.865Z,9.06
2018-01-06T00:09:05.503Z,9.1
2018-01-06T00:09:09.641Z,9.1
2018-01-06T00:09:13.893Z,9.08
2018-01-06T00:09:18.250Z,9.16
2018-01-06T00:09:22.316Z,9.01
2018-01-06T00:09:58.644Z,9
2018-01-06T00:10:02.875Z,9.16
2018-01-06T00:10:07.208Z,9.12
2018-01-06T00:10:11.445Z,9.13
2018-01-06T00:10:15.670Z,9.13
2018-01-06T00:10:19.612Z,9.03
2018-01-06T00:10:23.764Z,9.12
2018-01-06T00:10:28.004Z,9.13
2018-01-06T00:10:32.286Z,9.13
2018-01-06T00:10:36.415Z,9.15
2018-01-06T00:10:40.533Z,9.15
2018-01-06T00:10:44.669Z,9.08
2018-01-06T00:10:48.670Z,9.12
2018-01-06T00:10:52.793Z,9
2018-01-06T00:10:56.933Z,9.17
2018-01-06T00:11:00.977Z,9.12
2018-01-06T00:11:05.319Z,9.12
2018-01-06T00:11:09.661Z,9.12
2018-01-06T00:11:13.698Z,9.08
2018-01-06T00:11:17.735Z,9.12
2018-01-06T00:11:21.742Z,9.17
2018-01-06T00:11:25.885Z,9.12
2018-01-06T00:11:29.701Z,9.19
2018-01-06T00:11:33.641Z,9.08
2018-01-06T00:11:37.761Z,9.12
2018-01-06T00:11:41.999Z,9
2018-01-06T00:11:46.024Z,9.16
2018-01-06T00:11:50.058Z,9.15
2018-01-06T00:11:54.192Z,9.1
2018-01-06T00:11:58.317Z,9.16
2018-01-06T00:12:02.446Z,9.15
2018-01-06T00:12:06.595Z,9.17
2018-01-06T00:12:10.744Z,9.15
2018-01-06T00:12:14.769Z,9.08
2018-01-06T00:12:19.004Z,9.06
2018-01-06T00:12:22.913Z,9.1
2018-01-06T00:12:27.165Z,9.06
2018-01-06T00:12:31.400Z,9.16
2018-01-06T00:12:35.632Z,9.06
2018-01-06T00:12:39.864Z,9.16
2018-01-06T00:12:43.996Z,9.03
2018-01-06T00:12:48.022Z,9
2018-01-06T00:12:52.161Z,9.15
2018-01-06T00:12:56.502Z,8.98
2018-01-06T00:13:00.852Z,8.98
2018-01-06T00:13:05.225Z,9.06
2018-01-06T00:13:09.340Z,9.12
2018-01-06T00:13:13.576Z,9.12
2018-01-06T00:13:17.926Z,9.13
2018-01-06T00:13:22.165Z,9.08
2018-01-06T00:13:26.393Z,9.03
2018-01-06T00:13:30.517Z,9.1
2018-01-06T00:13:34.646Z,9.01
2018-01-06T00:13:38.777Z,9.15
2018-01-06T00:13:43.118Z,9.15
2018-01-06T00:13:47.457Z,9.12
2018-01-06T00:13:51.373Z,9.1
2018-01-06T00:13:55.614Z,9.08
2018-01-06T00:13:59.749Z,9.13
2018-01-06T00:14:04.142Z,9.13
2018-01-06T00:14:08.387Z,9.13
2018-01-06T00:14:12.634Z,9.08
2018-01-06T00:14:16.978Z,9.13
2018-01-06T00:14:21.315Z,9.12
2018-01-06T00:14:25.641Z,9.08
2018-01-06T00:14:29.777Z,9.15
2018-01-06T00:14:33.915Z,9.12
2018-01-06T00:14:37.837Z,9.12
2018-01-06T00:14:42.182Z,9
2018-01-06T00:14:46.516Z,9.08
2018-01-06T00:14:50.854Z,9
2018-01-06T00:14:55.171Z,9.13
2018-01-06T00:14:59.407Z,9.13
2018-01-06T00:15:03.642Z,9.13
2018-01-06T00:15:07.663Z,9.1
2018-01-06T00:15:11.885Z,9.1
2018-01-06T00:15:16.142Z,9.1
2018-01-06T00:15:20.368Z,9.12
2018-01-06T00:15:24.615Z,9.12
2018-01-06T00:15:28.751Z,9.12
2018-01-06T00:15:32.888Z,9.12
2018-01-06T00:15:37.016Z,9.17
2018-01-06T00:15:41.041Z,9.13
2018-01-06T00:15:44.956Z,9.1
2018-01-06T00:15:48.887Z,9.17
2018-01-06T00:15:53.218Z,9.06
2018-01-06T00:15:57.450Z,9.13
2018-01-06T00:16:01.633Z,9.13
2018-01-06T00:16:05.985Z,9.13
2018-01-06T00:16:10.312Z,9.15
2018-01-06T00:16:14.543Z,9.12
2018-01-06T00:16:18.659Z,9.08
2018-01-06T00:16:22.771Z,9.08
2018-01-06T00:16:26.848Z,9.13
2018-01-06T00:16:31.200Z,9.15
2018-01-06T00:16:35.236Z,9.15
2018-01-06T00:16:39.477Z,9.19
2018-01-06T00:16:43.383Z,9.15
2018-01-06T00:16:47.647Z,9.1
2018-01-06T00:16:51.987Z,9.17
2018-01-06T00:16:55.899Z,9.08
2018-01-06T00:16:59.925Z,9.1
2018-01-06T00:17:04.165Z,9.08
2018-01-06T00:17:08.127Z,9.12
2018-01-06T00:17:12.469Z,9.13
2018-01-06T00:17:16.592Z,9.12
2018-01-06T00:17:20.520Z,9.04
2018-01-06T00:17:24.755Z,9.15
2018-01-06T00:17:28.795Z,9.08
2018-01-06T00:17:32.830Z,9.13
2018-01-06T00:17:37.076Z,9.13
2018-01-06T00:17:41.086Z,9.16
2018-01-06T00:17:45.208Z,9.1
2018-01-06T00:17:49.328Z,9.2
2018-01-06T00:17:53.243Z,9.08
2018-01-06T00:17:57.473Z,9.12
2018-01-06T00:18:01.703Z,9.15
2018-01-06T00:18:06.299Z,9.16
2018-01-06T00:18:10.433Z,9.13
2018-01-06T00:18:14.354Z,9.13
2018-01-06T00:18:18.693Z,9.12
2018-01-06T00:18:22.817Z,9.13
2018-01-06T00:18:27.162Z,9.1
2018-01-06T00:18:31.503Z,9.2
2018-01-06T00:18:35.534Z,9.13
2018-01-06T00:18:39.570Z,9.16
2018-01-06T00:18:43.589Z,9.15
2018-01-06T00:18:47.832Z,9.08
2018-01-06T00:18:51.746Z,9.15
2018-01-06T00:18:55.744Z,9.16
2018-01-06T00:18:59.764Z,9.15
2018-01-06T00:19:03.887Z,9.15
2018-01-06T00:19:08.126Z,9.17
2018-01-06T00:19:12.383Z,9.16
2018-01-06T00:19:16.720Z,9.15
2018-01-06T00:19:20.740Z,9.16
2018-01-06T00:19:24.664Z,9.15
2018-01-06T00:19:28.889Z,9.13
2018-01-06T00:19:32.707Z,9.16
2018-01-06T00:19:36.931Z,9.13
2018-01-06T00:19:40.956Z,9.13
2018-01-06T00:19:44.863Z,9.19
2018-01-06T00:19:49.002Z,9.16
2018-01-06T00:19:53.244Z,9.12
2018-01-06T00:19:57.171Z,9.1
2018-01-06T00:20:01.523Z,9.16
2018-01-06T00:20:05.652Z,9.13
2018-01-06T00:20:09.892Z,9.16
2018-01-06T00:20:14.140Z,9.15
2018-01-06T00:20:18.368Z,9.16
2018-01-06T00:20:22.497Z,9.16
2018-01-06T00:20:26.741Z,9.13
2018-01-06T00:20:31.013Z,9.16
2018-01-06T00:20:35.251Z,9.13
2018-01-06T00:20:39.494Z,9.16
2018-01-06T00:20:43.528Z,9.16
2018-01-06T00:20:47.867Z,9.16
2018-01-06T00:20:51.985Z,9.17
2018-01-06T00:20:56.211Z,9.16
2018-01-06T00:21:00.127Z,9.15
2018-01-06T00:21:04.052Z,9.13
2018-01-06T00:21:08.393Z,9.17
2018-01-06T00:21:12.635Z,9.16
2018-01-06T00:21:16.772Z,9.1
2018-01-06T00:21:20.900Z,9.15
2018-01-06T00:21:25.139Z,9.16
2018-01-06T00:21:29.387Z,9.1
2018-01-06T00:21:33.626Z,9.13
2018-01-06T00:21:37.665Z,9.15
2018-01-06T00:21:41.694Z,9.17
2018-01-06T00:21:45.833Z,9.19
2018-01-06T00:21:50.067Z,9.16
2018-01-06T00:21:54.345Z,9.2
2018-01-06T00:21:58.290Z,9.17
2018-01-06T00:22:02.676Z,9.13
2018-01-06T00:22:06.948Z,9.15
2018-01-06T00:22:11.167Z,9.16
2018-01-06T00:22:15.290Z,9.19
2018-01-06T00:22:19.309Z,9.15
2018-01-06T00:22:23.532Z,9.08
2018-01-06T00:22:27.763Z,9.17
2018-01-06T00:22:32.111Z,9.15
2018-01-06T00:22:36.348Z,9.12
2018-01-06T00:22:40.474Z,9.1
2018-01-06T00:22:44.606Z,9.16
2018-01-06T00:22:48.842Z,9.19
2018-01-06T00:22:53.081Z,9.16
2018-01-06T00:22:57.322Z,9.16
2018-01-06T00:23:01.451Z,9.13
2018-01-06T00:23:05.623Z,9.13
2018-01-06T00:23:09.659Z,9.19
2018-01-06T00:23:13.803Z,9.15
2018-01-06T00:23:17.927Z,9.16
2018-01-06T00:23:21.941Z,9.13
2018-01-06T00:23:26.063Z,9.13
2018-01-06T00:23:30.418Z,9.13
2018-01-06T00:23:34.550Z,9.19
2018-01-06T00:23:38.680Z,9.17
2018-01-06T00:23:42.846Z,9.16
2018-01-06T00:23:47.185Z,9.16
2018-01-06T00:23:51.311Z,9.15
2018-01-06T00:23:55.224Z,9.19
2018-01-06T00:23:59.356Z,9.15
2018-01-06T00:24:03.479Z,9.12
2018-01-06T00:24:07.700Z,9.15
2018-01-06T00:24:11.832Z,9.17
2018-01-06T00:24:16.069Z,9.12
2018-01-06T00:24:20.194Z,9.15
2018-01-06T00:24:24.426Z,9.15
2018-01-06T00:24:28.569Z,9.12
2018-01-06T00:24:32.592Z,9.16
2018-01-06T00:24:36.951Z,9.16
2018-01-06T00:24:41.192Z,9.2
2018-01-06T00:24:45.428Z,9.15
2018-01-06T00:24:49.650Z,9.06
2018-01-06T00:24:54.007Z,9.16
2018-01-06T00:24:58.264Z,9.17
2018-01-06T00:25:02.632Z,9.15
2018-01-06T00:25:06.767Z,9.16
2018-01-06T00:25:10.899Z,9.19
2018-01-06T00:25:15.255Z,9.17
2018-01-06T00:25:19.488Z,9.16
2018-01-06T00:25:23.616Z,9.16
2018-01-06T00:25:27.749Z,9.19
2018-01-06T00:25:31.865Z,9.15
2018-01-06T00:25:35.869Z,9.13
2018-01-06T00:25:39.986Z,9.2
2018-01-06T00:25:44.120Z,9.17
2018-01-06T00:25:48.391Z,9.16
2018-01-06T00:25:52.619Z,9.16
2018-01-06T00:25:56.759Z,9.15
2018-01-06T00:26:00.884Z,9.1
2018-01-06T00:26:05.261Z,9.17
2018-01-06T00:26:09.587Z,9.22
2018-01-06T00:26:13.959Z,9.17
2018-01-06T00:26:18.198Z,9.13
2018-01-06T00:26:22.336Z,9.16
2018-01-06T00:26:26.560Z,9.17
2018-01-06T00:26:30.683Z,9.16
2018-01-06T00:26:34.799Z,9.15
2018-01-06T00:26:38.995Z,9.17
2018-01-06T00:26:43.135Z,9.16
2018-01-06T00:26:47.253Z,9.15
2018-01-06T00:26:51.376Z,9.13
2018-01-06T00:26:55.392Z,9.2
2018-01-06T00:26:59.739Z,9.13
2018-01-06T00:27:03.978Z,9.12
2018-01-06T00:27:08.220Z,9.19
2018-01-06T00:27:12.555Z,9.17
2018-01-06T00:27:16.676Z,9.13
2018-01-06T00:27:20.945Z,9.16
2018-01-06T00:27:25.080Z,9.17
2018-01-06T00:27:29.223Z,9.13
2018-01-06T00:27:33.388Z,9.15
2018-01-06T00:27:37.283Z,9.16
2018-01-06T00:27:41.416Z,9.13
2018-01-06T00:27:45.450Z,9.17
2018-01-06T00:27:49.695Z,9.12
2018-01-06T00:27:53.821Z,9.16
2018-01-06T00:27:57.948Z,9.19
2018-01-06T00:28:02.205Z,9.16
2018-01-06T00:28:06.235Z,9.16
2018-01-06T00:28:10.368Z,9.13
2018-01-06T00:28:14.708Z,9.2
2018-01-06T00:28:18.946Z,9.08
2018-01-06T00:28:23.292Z,9.1
2018-01-06T00:28:27.312Z,9.15
2018-01-06T00:28:31.452Z,9.15
2018-01-06T00:28:35.469Z,9.15
2018-01-06T00:28:39.688Z,9.16
2018-01-06T00:28:43.970Z,9.19
2018-01-06T00:28:48.189Z,9.2
2018-01-06T00:28:52.302Z,9.19
2018-01-06T00:28:56.436Z,9.06
2018-01-06T00:29:00.546Z,9.08
2018-01-06T00:29:04.899Z,9.12
2018-01-06T00:29:09.296Z,9.08
2018-01-06T00:29:13.320Z,9.15
2018-01-06T00:29:17.560Z,9.15
2018-01-06T00:29:21.900Z,9.08
2018-01-06T00:29:25.913Z,9.13
2018-01-06T00:29:30.137Z,9.12
2018-01-06T00:29:34.277Z,9.1
2018-01-06T00:29:38.314Z,9.19
2018-01-06T00:29:42.435Z,9.1
2018-01-06T00:29:46.568Z,9.03
2018-01-06T00:29:50.902Z,9.12
2018-01-06T00:29:54.818Z,9.03
2018-01-06T00:29:58.937Z,9.08
2018-01-06T00:30:03.479Z,9.1
2018-01-06T00:30:07.708Z,9.16
2018-01-06T00:30:11.720Z,9.12
2018-01-06T00:30:15.970Z,9.04
2018-01-06T00:30:19.911Z,9.12
2018-01-06T00:30:24.131Z,9.08
2018-01-06T00:30:27.842Z,9
2018-01-06T00:30:32.028Z,9.1
2018-01-06T00:30:36.046Z,9
2018-01-06T00:30:40.182Z,9.15
2018-01-06T00:30:44.411Z,9.1
2018-01-06T00:30:48.646Z,9.03
2018-01-06T00:30:52.887Z,9.12
2018-01-06T00:30:56.909Z,9.1
2018-01-06T00:31:01.157Z,9
2018-01-06T00:31:05.690Z,8.96
2018-01-06T00:31:09.726Z,9.06
2018-01-06T00:31:14.092Z,9.12
2018-01-06T00:31:18.124Z,9
2018-01-06T00:31:22.347Z,9.04
2018-01-06T00:31:26.695Z,9.1
2018-01-06T00:31:31.049Z,9.04
2018-01-06T00:31:35.044Z,9.12
2018-01-06T00:31:39.168Z,9.01
2018-01-06T00:31:43.180Z,9.04
2018-01-06T00:31:47.298Z,9.03
2018-01-06T00:31:51.532Z,9.03
2018-01-06T00:31:55.868Z,9
2018-01-06T00:31:59.994Z,9.08
2018-01-06T00:32:04.170Z,9.12
2018-01-06T00:32:08.497Z,9.01
2018-01-06T00:32:12.728Z,8.97
2018-01-06T00:32:16.857Z,9.03
2018-01-06T00:32:20.992Z,9.06
2018-01-06T00:32:25.240Z,8.97
2018-01-06T00:32:29.602Z,9.04
2018-01-06T00:32:33.416Z,9
2018-01-06T00:32:37.560Z,9.03
2018-01-06T00:32:41.677Z,9.03
2018-01-06T00:32:46.019Z,9.01
2018-01-06T00:32:50.055Z,9.01
2018-01-06T00:32:54.189Z,9.03
2018-01-06T00:32:58.316Z,9.04
2018-01-06T00:33:02.646Z,8.96
2018-01-06T00:33:06.872Z,9.03
2018-01-06T00:33:11.203Z,9.01
2018-01-06T00:33:15.541Z,9.04
2018-01-06T00:33:19.782Z,9.04
2018-01-06T00:33:24.008Z,9.03
2018-01-06T00:33:28.133Z,9.01
2018-01-06T00:33:32.255Z,8.97
2018-01-06T00:33:36.450Z,9.03
2018-01-06T00:33:40.482Z,9
2018-01-06T00:33:44.598Z,9.06
2018-01-06T00:33:48.505Z,9.03
2018-01-06T00:33:52.729Z,9
2018-01-06T00:33:56.748Z,8.96
2018-01-06T00:34:00.550Z,9.03
2018-01-06T00:34:04.889Z,9.06
2018-01-06T00:34:09.102Z,9.01
2018-01-06T00:34:13.435Z,9.01
2018-01-06T00:34:17.580Z,8.97
2018-01-06T00:34:21.710Z,9.06
2018-01-06T00:34:25.844Z,9.01
2018-01-06T00:34:29.871Z,9.03
2018-01-06T00:34:34.117Z,9.03
2018-01-06T00:34:38.333Z,8.96
2018-01-06T00:34:42.448Z,8.94
2018-01-06T00:34:46.590Z,9.04
2018-01-06T00:34:50.509Z,8.91
2018-01-06T00:34:54.752Z,9.04
2018-01-06T00:34:58.990Z,8.93
2018-01-06T00:35:03.020Z,9.04
2018-01-06T00:35:07.255Z,8.93
2018-01-06T00:35:11.596Z,8.94
2018-01-06T00:35:15.731Z,8.96
2018-01-06T00:35:19.755Z,8.97
2018-01-06T00:35:23.891Z,8.93
2018-01-06T00:35:28.137Z,8.91
2018-01-06T00:35:32.163Z,8.89
2018-01-06T00:35:36.418Z,8.96
2018-01-06T00:35:40.741Z,8.93
2018-01-06T00:35:44.857Z,8.98
2018-01-06T00:35:49.102Z,8.89
2018-01-06T00:35:53.318Z,8.98
2018-01-06T00:35:57.431Z,8.94
2018-01-06T00:36:01.678Z,8.85
2018-01-06T00:36:06.142Z,8.88
2018-01-06T00:36:10.180Z,8.97
2018-01-06T00:36:14.539Z,8.88
2018-01-06T00:36:18.765Z,8.97
2018-01-06T00:36:22.950Z,8.93
2018-01-06T00:36:27.085Z,8.91
2018-01-06T00:36:31.224Z,8.88
2018-01-06T00:36:35.353Z,8.96
2018-01-06T00:36:39.480Z,8.96
2018-01-06T00:36:43.836Z,8.85
2018-01-06T00:36:48.160Z,8.88
2018-01-06T00:36:52.502Z,8.94
2018-01-06T00:36:56.628Z,8.94
2018-01-06T00:37:00.963Z,8.89
2018-01-06T00:37:05.528Z,8.96
2018-01-06T00:37:09.854Z,8.93
2018-01-06T00:37:14.040Z,8.85
2018-01-06T00:37:18.157Z,8.86
2018-01-06T00:37:22.383Z,8.91
2018-01-06T00:37:26.296Z,8.91
2018-01-06T00:37:30.309Z,8.91
2018-01-06T00:37:34.011Z,8.85
2018-01-06T00:37:38.339Z,8.85
2018-01-06T00:37:42.262Z,8.86
2018-01-06T00:37:46.517Z,8.82
2018-01-06T00:37:50.440Z,8.89
2018-01-06T00:37:54.687Z,8.88
2018-01-06T00:37:58.922Z,8.82
2018-01-06T00:38:03.265Z,8.86
2018-01-06T00:38:07.393Z,8.88
2018-01-06T00:38:11.521Z,8.83
2018-01-06T00:38:15.656Z,8.85
2018-01-06T00:38:19.776Z,8.85
2018-01-06T00:38:23.907Z,8.82
2018-01-06T00:38:28.030Z,8.86
2018-01-06T00:38:32.275Z,8.83
2018-01-06T00:38:36.520Z,8.83
2018-01-06T00:38:40.542Z,8.79
2018-01-06T00:38:44.772Z,8.86
2018-01-06T00:38:49.008Z,8.8
2018-01-06T00:38:53.150Z,8.85
2018-01-06T00:38:57.258Z,8.8
2018-01-06T00:39:01.272Z,8.75
2018-01-06T00:39:05.568Z,8.78
2018-01-06T00:39:09.896Z,8.8
2018-01-06T00:39:14.264Z,8.82
2018-01-06T00:39:18.504Z,8.8
2018-01-06T00:39:22.742Z,8.71
2018-01-06T00:39:26.677Z,8.71
2018-01-06T00:39:30.909Z,8.7
2018-01-06T00:39:35.035Z,8.73
2018-01-06T00:39:39.152Z,8.73
2018-01-06T00:39:43.280Z,8.7
2018-01-06T00:39:47.306Z,8.7
2018-01-06T00:39:51.449Z,8.75
2018-01-06T00:39:55.678Z,8.7
2018-01-06T00:39:59.833Z,8.78
2018-01-06T00:40:04.253Z,8.71
2018-01-06T00:40:08.173Z,8.75
2018-01-06T00:40:12.407Z,8.79
2018-01-06T00:40:16.631Z,8.79
2018-01-06T00:40:20.762Z,8.76
2018-01-06T00:40:24.887Z,8.78
2018-01-06T00:40:29.236Z,8.78
2018-01-06T00:40:33.476Z,8.78
2018-01-06T00:40:37.709Z,8.76
2018-01-06T00:40:42.053Z,8.71
2018-01-06T00:40:46.393Z,8.7
2018-01-06T00:40:50.507Z,8.78
2018-01-06T00:40:54.810Z,8.71
2018-01-06T00:40:58.941Z,8.76
2018-01-06T00:41:03.317Z,8.7
2018-01-06T00:41:07.539Z,8.75
2018-01-06T00:41:11.657Z,8.73
2018-01-06T00:41:15.786Z,8.73
2018-01-06T00:41:20.020Z,8.7
2018-01-06T00:41:24.050Z,8.73
2018-01-06T00:41:28.173Z,8.71
2018-01-06T00:41:32.096Z,8.7
2018-01-06T00:41:36.350Z,8.75
2018-01-06T00:41:40.573Z,8.73
2018-01-06T00:41:44.709Z,8.7
2018-01-06T00:41:48.730Z,8.73
2018-01-06T00:41:52.868Z,8.7
2018-01-06T00:41:56.882Z,8.76
2018-01-06T00:42:01.009Z,8.71
2018-01-06T00:42:05.393Z,8.64
2018-01-06T00:42:09.727Z,8.7
2018-01-06T00:42:13.960Z,8.71
2018-01-06T00:42:18.096Z,8.68
2018-01-06T00:42:22.120Z,8.68
2018-01-06T00:42:26.453Z,8.6
2018-01-06T00:42:30.566Z,8.7
2018-01-06T00:42:34.583Z,8.63
2018-01-06T00:42:38.926Z,8.73
2018-01-06T00:42:43.058Z,8.7
2018-01-06T00:42:47.189Z,8.73
2018-01-06T00:42:51.204Z,8.7
2018-01-06T00:42:55.115Z,8.71
2018-01-06T00:42:59.326Z,8.75
2018-01-06T00:43:03.571Z,8.73
2018-01-06T00:43:07.705Z,8.73
2018-01-06T00:43:11.642Z,8.67
2018-01-06T00:43:15.780Z,8.71
2018-01-06T00:43:20.125Z,8.68
2018-01-06T00:43:24.156Z,8.7
2018-01-06T00:43:28.403Z,8.68
2018-01-06T00:43:32.539Z,8.71
2018-01-06T00:43:36.681Z,8.65
2018-01-06T00:43:40.607Z,8.68
2018-01-06T00:43:44.839Z,8.61
2018-01-06T00:43:49.071Z,8.64
2018-01-06T00:43:53.298Z,8.73
2018-01-06T00:43:57.563Z,8.64
2018-01-06T00:44:01.965Z,8.7
2018-01-06T00:44:06.190Z,8.64
2018-01-06T00:44:10.429Z,8.67
2018-01-06T00:44:14.658Z,8.65
2018-01-06T00:44:18.891Z,8.63
2018-01-06T00:44:23.136Z,8.64
2018-01-06T00:44:27.162Z,8.65
2018-01-06T00:44:31.394Z,8.65
2018-01-06T00:44:35.654Z,8.61
2018-01-06T00:44:39.784Z,8.61
2018-01-06T00:44:44.016Z,8.6
2018-01-06T00:44:48.232Z,8.65
2018-01-06T00:44:52.563Z,8.7
2018-01-06T00:44:56.688Z,8.63
2018-01-06T00:45:00.714Z,8.55
2018-01-06T00:45:05.309Z,8.68
2018-01-06T00:45:09.553Z,8.63
2018-01-06T00:45:13.890Z,8.61
2018-01-06T00:45:18.109Z,8.6
2018-01-06T00:45:22.282Z,8.54
2018-01-06T00:45:26.403Z,8.52
2018-01-06T00:45:30.728Z,8.65
2018-01-06T00:45:34.556Z,8.68
2018-01-06T00:45:38.882Z,8.61
2018-01-06T00:45:43.103Z,8.63
2018-01-06T00:45:47.436Z,8.6
2018-01-06T00:45:51.574Z,8.57
2018-01-06T00:45:55.922Z,8.55
2018-01-06T00:46:00.176Z,8.58
2018-01-06T00:46:04.310Z,8.61
2018-01-06T00:46:08.443Z,8.58
2018-01-06T00:46:12.682Z,8.61
2018-01-06T00:46:16.836Z,8.65
2018-01-06T00:46:20.961Z,8.57
2018-01-06T00:46:25.079Z,8.63
2018-01-06T00:46:29.215Z,8.65
2018-01-06T00:46:33.566Z,8.55
2018-01-06T00:46:37.920Z,8.55
2018-01-06T00:46:42.032Z,8.57
2018-01-06T00:46:46.269Z,8.52
2018-01-06T00:46:50.523Z,8.57
2018-01-06T00:46:54.440Z,8.63
2018-01-06T00:46:58.777Z,8.5
2018-01-06T00:47:03.060Z,8.6
2018-01-06T00:47:07.072Z,8.55
2018-01-06T00:47:11.303Z,8.55
2018-01-06T00:47:15.560Z,8.61
2018-01-06T00:47:19.802Z,8.55
2018-01-06T00:47:24.041Z,8.55
2018-01-06T00:47:28.053Z,8.54
2018-01-06T00:47:32.191Z,8.57
2018-01-06T00:47:36.278Z,8.57
2018-01-06T00:47:40.295Z,8.58
2018-01-06T00:47:44.435Z,8.6
2018-01-06T00:47:48.569Z,8.54
2018-01-06T00:47:52.890Z,8.58
2018-01-06T00:47:57.130Z,8.58
2018-01-06T00:48:01.509Z,8.54
2018-01-06T00:48:05.736Z,8.6
2018-01-06T00:48:10.085Z,8.57
2018-01-06T00:48:14.012Z,8.58
2018-01-06T00:48:18.130Z,8.57
2018-01-06T00:48:22.473Z,8.6
2018-01-06T00:48:26.717Z,8.55
2018-01-06T00:48:31.065Z,8.55
2018-01-06T00:48:35.295Z,8.55
2018-01-06T00:48:39.641Z,8.58
2018-01-06T00:48:43.854Z,8.61
2018-01-06T00:48:48.182Z,8.54
2018-01-06T00:48:52.326Z,8.63
2018-01-06T00:48:56.541Z,8.58
2018-01-06T00:49:00.767Z,8.65
2018-01-06T00:49:04.883Z,8.58
2018-01-06T00:49:09.112Z,8.57
2018-01-06T00:49:13.242Z,8.5
2018-01-06T00:49:17.568Z,8.67
2018-01-06T00:49:21.815Z,8.61
2018-01-06T00:49:25.939Z,8.58
2018-01-06T00:49:30.072Z,8.55
2018-01-06T00:49:34.008Z,8.6
2018-01-06T00:49:38.137Z,8.54
2018-01-06T00:49:42.385Z,8.55
2018-01-06T00:49:46.511Z,8.49
2018-01-06T00:49:50.745Z,8.55
2018-01-06T00:49:54.648Z,8.57
2018-01-06T00:49:58.891Z,8.54
2018-01-06T00:50:03.016Z,8.54
2018-01-06T00:50:07.243Z,8.57
2018-01-06T00:50:11.592Z,8.55
2018-01-06T00:50:15.733Z,8.54
2018-01-06T00:50:20.027Z,8.5
2018-01-06T00:50:24.253Z,8.57
2018-01-06T00:50:28.602Z,8.55
2018-01-06T00:50:32.845Z,8.61
2018-01-06T00:50:36.992Z,8.52
2018-01-06T00:50:41.347Z,8.61
2018-01-06T00:50:45.699Z,8.54
2018-01-06T00:50:49.944Z,8.54
2018-01-06T00:50:53.953Z,8.57
2018-01-06T00:50:58.068Z,8.57
2018-01-06T00:51:02.189Z,8.58
2018-01-06T00:51:06.526Z,8.6
2018-01-06T00:51:10.855Z,8.5
2018-01-06T00:51:15.259Z,8.54
2018-01-06T00:51:19.506Z,8.57
2018-01-06T00:51:23.837Z,8.6
2018-01-06T00:51:27.864Z,8.47
2018-01-06T00:51:31.984Z,8.54
2018-01-06T00:51:36.213Z,8.55
2018-01-06T00:51:40.320Z,8.47
2018-01-06T00:51:44.669Z,8.49
2018-01-06T00:51:48.994Z,8.47
2018-01-06T00:51:53.233Z,8.52
2018-01-06T00:51:57.478Z,8.46
2018-01-06T00:52:01.956Z,8.49
2018-01-06T00:52:06.195Z,8.49
2018-01-06T00:52:10.450Z,8.5
2018-01-06T00:52:14.681Z,8.5
2018-01-06T00:52:18.799Z,8.49
2018-01-06T00:52:23.029Z,8.49
2018-01-06T00:52:27.266Z,8.45
2018-01-06T00:52:31.628Z,8.55
2018-01-06T00:52:35.542Z,8.45
2018-01-06T00:52:39.955Z,8.5
2018-01-06T00:52:44.268Z,8.47
2018-01-06T00:52:48.506Z,8.5
2018-01-06T00:52:52.755Z,8.49
2018-01-06T00:52:56.881Z,8.49
2018-01-06T00:53:01.115Z,8.52
2018-01-06T00:53:05.755Z,8.49
2018-01-06T00:53:09.871Z,8.52
2018-01-06T00:53:14.207Z,8.49
2018-01-06T00:53:18.424Z,8.46
2018-01-06T00:53:22.570Z,8.47
2018-01-06T00:53:26.817Z,8.47
2018-01-06T00:53:31.140Z,8.43
2018-01-06T00:53:35.172Z,8.39
2018-01-06T00:53:39.291Z,8.45
2018-01-06T00:53:43.523Z,8.42
2018-01-06T00:53:47.637Z,8.46
2018-01-06T00:53:51.772Z,8.45
2018-01-06T00:53:55.903Z,8.45
2018-01-06T00:53:59.931Z,8.43
2018-01-06T00:54:04.159Z,8.4
2018-01-06T00:54:08.405Z,8.52
2018-01-06T00:54:12.535Z,8.52
2018-01-06T00:54:16.780Z,8.5
2018-01-06T00:54:21.113Z,8.4
2018-01-06T00:54:25.050Z,8.46
2018-01-06T00:54:29.166Z,8.39
2018-01-06T00:54:33.187Z,8.43
2018-01-06T00:54:37.523Z,8.4
2018-01-06T00:54:41.766Z,8.43
2018-01-06T00:54:45.999Z,8.43
2018-01-06T00:54:50.214Z,8.4
2018-01-06T00:54:54.558Z,8.39
2018-01-06T00:54:58.742Z,8.46
2018-01-06T00:55:02.966Z,8.42
2018-01-06T00:55:07.196Z,8.39
2018-01-06T00:55:11.440Z,8.4
2018-01-06T00:55:15.771Z,8.49
2018-01-06T00:55:20.119Z,8.34
2018-01-06T00:55:24.255Z,8.4
2018-01-06T00:55:28.475Z,8.43
2018-01-06T00:55:32.586Z,8.45
2018-01-06T00:55:36.941Z,8.43
2018-01-06T00:55:40.966Z,8.45
2018-01-06T00:55:44.980Z,8.32
2018-01-06T00:55:49.013Z,8.46
2018-01-06T00:55:53.231Z,8.39
2018-01-06T00:55:57.475Z,8.46
2018-01-06T00:56:01.806Z,8.46
2018-01-06T00:56:05.978Z,8.43
2018-01-06T00:56:10.102Z,8.46
2018-01-06T00:56:14.339Z,8.45
2018-01-06T00:56:18.567Z,8.43
2018-01-06T00:56:22.895Z,8.43
2018-01-06T00:56:27.234Z,8.46
2018-01-06T00:56:31.342Z,8.43